Time;durP1;ratioP1;P1;durP2;ratioP2;P2;SDS_P1;SDS_P2;PMS_P1;PMS_P2;Temp;Humidity;BMP_temperature;BMP_pressure;BME280_temperature;BME280_humidity;BME280_pressure;Samples;Min_cycle;Max_cycle;Signal;HPM_P1;HPM_P2
2022/09/25 00:00:36;;;;;;;28.17;15.63;;;;;;;8.15;89.58;99046.66;8399705;28;20041;-78
2022/09/25 00:04:57;;;;;;;38.13;19.75;;;;;;;8.16;89.44;99037.50;8410421;28;20095;-78
2022/09/25 00:09:00;;;;;;;35.25;17.13;;;;;;;8.19;89.63;99042.31;8407547;28;20048;-78
2022/09/25 00:13:01;;;;;;;34.95;16.13;;;;;;;8.22;89.61;99041.72;8397932;28;20060;-77
2022/09/25 00:17:02;;;;;;;34.95;16.40;;;;;;;8.23;89.43;99037.94;8401692;28;20048;-78
2022/09/25 00:21:04;;;;;;;30.95;17.13;;;;;;;8.26;89.80;99038.13;8393886;28;20052;-78
2022/09/25 00:25:05;;;;;;;31.35;16.60;;;;;;;8.29;89.58;99042.16;8405969;28;20359;-78
2022/09/25 00:29:07;;;;;;;30.27;15.82;;;;;;;8.29;89.76;99036.75;8415624;28;20102;-78
2022/09/25 00:33:08;;;;;;;31.17;16.30;;;;;;;8.30;89.84;99043.78;8395126;28;20056;-78
2022/09/25 00:37:09;;;;;;;26.45;15.27;;;;;;;8.27;90.00;99038.94;8418508;28;21061;-78
2022/09/25 00:41:10;;;;;;;27.10;16.48;;;;;;;8.26;90.18;99050.78;8418890;28;20067;-78
2022/09/25 00:45:21;;;;;;;31.10;16.95;;;;;;;8.23;90.25;99032.56;8421944;28;20485;-78
2022/09/25 00:49:23;;;;;;;27.30;16.73;;;;;;;8.25;90.36;99031.16;8405335;28;20040;-80
2022/09/25 00:53:28;;;;;;;32.08;17.92;;;;;;;8.26;90.35;99037.34;8407496;28;20486;-78
2022/09/25 00:57:30;;;;;;;33.30;18.25;;;;;;;8.23;90.54;99027.97;8397024;28;20509;-78
2022/09/25 01:01:31;;;;;;;34.28;19.52;;;;;;;8.23;90.53;99027.19;8412822;28;20045;-79
2022/09/25 01:05:35;;;;;;;34.25;17.88;;;;;;;8.20;90.66;99030.44;8406833;28;20079;-78
2022/09/25 01:09:36;;;;;;;39.45;21.08;;;;;;;8.17;91.04;99028.34;8404238;28;20505;-78
2022/09/25 01:13:37;;;;;;;46.65;24.00;;;;;;;8.16;90.97;99032.94;8391817;28;20052;-79
2022/09/25 01:17:37;;;;;;;49.97;25.27;;;;;;;8.19;91.24;99031.56;8398259;28;20050;-80
2022/09/25 01:21:43;;;;;;;48.80;25.40;;;;;;;8.20;91.04;99030.44;8406489;28;21588;-78
2022/09/25 01:26:07;;;;;;;46.35;25.63;;;;;;;8.16;91.32;99021.38;8401142;28;20390;-79
2022/09/25 01:30:13;;;;;;;43.65;23.38;;;;;;;8.12;90.96;99021.16;8413807;28;20040;-79
2022/09/25 01:34:40;;;;;;;37.95;21.83;;;;;;;8.09;91.50;99029.03;8388788;28;20040;-78
2022/09/25 01:39:11;;;;;;;36.03;20.42;;;;;;;8.03;91.27;99023.75;8415893;28;20055;-79
2022/09/25 01:43:15;;;;;;;43.08;22.88;;;;;;;7.98;91.66;99031.84;8365740;28;20052;-79
2022/09/25 01:47:21;;;;;;;35.33;19.42;;;;;;;7.96;91.60;99034.06;8381349;28;20375;-78
2022/09/25 01:51:29;;;;;;;39.08;21.52;;;;;;;7.96;91.71;99023.31;8403487;28;20059;-77
2022/09/25 01:55:35;;;;;;;39.33;21.17;;;;;;;7.96;91.63;99028.69;8405785;28;20052;-78
2022/09/25 01:59:48;;;;;;;46.63;21.60;;;;;;;7.96;91.64;99034.06;8390470;28;20064;-78
2022/09/25 02:03:55;;;;;;;37.15;19.52;;;;;;;7.92;91.55;99027.69;8380556;28;20059;-78
2022/09/25 02:08:05;;;;;;;57.10;21.25;;;;;;;7.87;91.76;99035.03;8398982;28;20052;-78
2022/09/25 02:12:20;;;;;;;40.83;23.00;;;;;;;7.84;92.05;99035.59;8382770;28;20049;-78
2022/09/25 02:16:27;;;;;;;39.03;22.58;;;;;;;7.78;91.98;99032.19;8396791;28;20082;-80
2022/09/25 02:20:32;;;;;;;55.10;26.00;;;;;;;7.76;92.27;99034.38;8398199;28;20045;-78
2022/09/25 02:24:47;;;;;;;54.50;27.38;;;;;;;7.75;92.28;99032.78;8403880;28;20051;-78
2022/09/25 02:28:57;;;;;;;49.63;28.27;;;;;;;7.76;92.41;99028.19;8412478;28;20494;-78
2022/09/25 02:32:58;;;;;;;50.22;29.10;;;;;;;7.75;92.41;99027.41;8390206;28;20053;-78
2022/09/25 02:37:02;;;;;;;51.38;28.42;;;;;;;7.74;92.41;99031.16;8404404;28;20512;-78
2022/09/25 02:41:10;;;;;;;46.03;26.25;;;;;;;7.72;92.80;99017.22;8423566;28;20052;-78
2022/09/25 02:45:13;;;;;;;50.17;27.35;;;;;;;7.72;92.64;99022.59;8420601;28;20131;-77
2022/09/25 02:49:20;;;;;;;50.40;27.05;;;;;;;7.70;92.68;99014.03;8418679;28;20105;-79
2022/09/25 02:53:56;;;;;;;44.13;25.70;;;;;;;7.68;93.01;99010.81;8404946;28;20121;-78
2022/09/25 02:58:27;;;;;;;43.53;25.77;;;;;;;7.66;93.24;99018.41;8395237;28;20044;-77
2022/09/25 03:02:29;;;;;;;42.63;24.98;;;;;;;7.63;93.39;99013.59;8408118;28;20040;-77
2022/09/25 03:06:30;;;;;;;49.38;26.13;;;;;;;7.61;93.18;99015.78;8409419;28;20462;-77
2022/09/25 03:10:33;;;;;;;42.97;26.35;;;;;;;7.60;93.49;99008.81;8415482;28;20063;-78
2022/09/25 03:14:34;;;;;;;44.33;26.00;;;;;;;7.61;93.68;99015.78;8412374;28;20489;-78
2022/09/25 03:18:36;;;;;;;48.90;26.02;;;;;;;7.63;93.68;99013.59;8414919;28;20048;-77
2022/09/25 03:22:38;;;;;;;41.05;24.85;;;;;;;7.63;93.71;99008.22;8409472;28;20048;-77
2022/09/25 03:26:39;;;;;;;43.60;25.27;;;;;;;7.63;93.82;99008.22;8413260;28;20119;-78
2022/09/25 03:30:41;;;;;;;44.40;24.48;;;;;;;7.61;93.90;99010.41;8400576;28;20057;-78
2022/09/25 03:34:42;;;;;;;45.22;23.23;;;;;;;7.59;93.91;99012.59;8418414;28;20517;-78
2022/09/25 03:38:44;;;;;;;44.97;24.15;;;;;;;7.57;94.10;99009.38;8380306;28;20048;-78
2022/09/25 03:42:46;;;;;;;49.75;25.65;;;;;;;7.58;93.96;98989.47;8403372;28;20045;-78
2022/09/25 03:46:47;;;;;;;44.53;24.45;;;;;;;7.60;94.02;98998.06;8425363;28;20401;-77
2022/09/25 03:50:49;;;;;;;58.35;26.58;;;;;;;7.62;93.89;98993.19;8410842;28;20066;-77
2022/09/25 03:54:50;;;;;;;45.55;27.00;;;;;;;7.67;93.82;98993.09;8386734;28;20044;-77
2022/09/25 03:58:53;;;;;;;46.55;26.58;;;;;;;7.72;93.78;98986.88;8409042;28;20063;-77
2022/09/25 04:02:54;;;;;;;62.38;29.58;;;;;;;7.75;93.83;99000.50;8410787;28;20067;-78
2022/09/25 04:06:55;;;;;;;53.47;27.90;;;;;;;7.73;93.94;98991.94;8404498;28;20064;-77
2022/09/25 04:11:00;;;;;;;50.20;28.77;;;;;;;7.69;94.40;98990.94;8419819;28;20036;-78
2022/09/25 04:15:01;;;;;;;55.58;29.52;;;;;;;7.66;94.24;98980.78;8408998;28;20043;-77
2022/09/25 04:19:02;;;;;;;53.53;27.05;;;;;;;7.60;94.45;98987.31;8407024;28;20452;-78
2022/09/25 04:23:03;;;;;;;51.92;26.75;;;;;;;7.56;94.61;98997.06;8407682;28;20145;-77
2022/09/25 04:27:04;;;;;;;48.35;26.98;;;;;;;7.54;94.68;99001.91;8403951;28;20045;-77
2022/09/25 04:31:05;;;;;;;44.00;25.63;;;;;;;7.50;94.87;98987.47;8420271;28;20547;-77
2022/09/25 04:35:06;;;;;;;53.42;27.45;;;;;;;7.49;94.79;98991.25;8408604;28;20055;-78
2022/09/25 04:39:08;;;;;;;50.22;26.63;;;;;;;7.46;94.87;98987.22;8407627;28;20414;-78
2022/09/25 04:43:09;;;;;;;54.15;28.38;;;;;;;7.46;94.92;98997.16;8400159;28;20070;-77
2022/09/25 04:47:10;;;;;;;48.85;26.10;;;;;;;7.45;94.66;98995.59;8419937;28;20055;-78
2022/09/25 04:51:11;;;;;;;50.42;28.08;;;;;;;7.43;94.69;98987.81;8402398;28;20131;-77
2022/09/25 04:55:12;;;;;;;48.22;27.73;;;;;;;7.43;94.71;98992.41;8407273;28;20048;-77
2022/09/25 04:59:15;;;;;;;52.55;27.52;;;;;;;7.44;94.93;98988.63;8388316;28;20041;-78
2022/09/25 05:03:16;;;;;;;49.03;27.38;;;;;;;7.45;95.04;98984.84;8386741;28;20120;-77
2022/09/25 05:07:17;;;;;;;50.97;27.88;;;;;;;7.47;95.01;98988.03;8377799;28;20467;-77
2022/09/25 05:11:18;;;;;;;49.72;26.85;;;;;;;7.46;95.00;98986.44;8373455;28;20056;-77
2022/09/25 05:15:19;;;;;;;53.10;28.75;;;;;;;7.46;95.02;98986.44;8380562;28;20037;-78
2022/09/25 05:19:20;;;;;;;47.92;28.25;;;;;;;7.45;95.05;98990.22;8372851;28;20072;-77
2022/09/25 05:23:22;;;;;;;49.03;28.42;;;;;;;7.44;94.93;98985.94;8372240;28;20051;-77
2022/09/25 05:27:23;;;;;;;57.22;30.25;;;;;;;7.49;95.03;98985.88;8375753;28;20090;-76
2022/09/25 05:31:24;;;;;;;57.13;31.40;;;;;;;7.53;95.37;98986.88;8389261;28;20483;-78
2022/09/25 05:35:27;;;;;;;59.22;33.05;;;;;;;7.58;95.29;98994.84;8368812;28;20090;-79
2022/09/25 05:39:28;;;;;;;60.45;33.08;;;;;;;7.66;95.18;98991.53;8365078;28;20051;-78
2022/09/25 05:43:30;;;;;;;62.83;33.97;;;;;;;7.74;95.10;98988.16;8378583;28;20155;-76
2022/09/25 05:47:31;;;;;;;57.42;34.33;;;;;;;7.84;94.80;98990.69;8378082;28;20485;-78
2022/09/25 05:51:32;;;;;;;62.35;36.50;;;;;;;7.95;94.89;98989.44;8372746;28;20053;-78
2022/09/25 05:55:33;;;;;;;67.68;36.88;;;;;;;8.06;94.35;98985.47;8374159;28;20040;-78
2022/09/25 05:59:34;;;;;;;68.70;40.33;;;;;;;8.20;94.51;98990.09;8372249;28;20086;-78
2022/09/25 06:03:35;;;;;;;68.75;42.75;;;;;;;8.35;94.53;98989.88;8374922;28;20457;-78
2022/09/25 06:07:36;;;;;;;68.45;40.05;;;;;;;8.47;94.62;98990.16;8393648;28;20040;-78
2022/09/25 06:11:39;;;;;;;64.85;39.03;;;;;;;8.57;94.83;98989.97;8394039;28;20052;-78
2022/09/25 06:15:40;;;;;;;61.20;35.20;;;;;;;8.68;94.49;98996.75;8394272;28;20139;-78
2022/09/25 06:19:44;;;;;;;57.58;34.65;;;;;;;8.77;94.45;98989.63;8393921;28;20098;-77
2022/09/25 06:23:45;;;;;;;67.68;38.10;;;;;;;8.87;94.57;98994.78;8394465;28;20135;-77
2022/09/25 06:27:46;;;;;;;64.15;35.83;;;;;;;9.02;94.21;98992.88;8393584;28;20048;-78
2022/09/25 06:31:47;;;;;;;52.60;32.33;;;;;;;9.13;94.52;98994.25;8374088;28;20444;-77
2022/09/25 06:35:49;;;;;;;52.83;30.73;;;;;;;9.26;94.21;98988.03;8397158;28;20044;-77
2022/09/25 06:39:49;;;;;;;50.03;30.23;;;;;;;9.39;94.20;98984.53;8401493;28;20041;-78
2022/09/25 06:43:51;;;;;;;52.25;29.67;;;;;;;9.52;94.18;98983.69;8399707;28;20131;-79
2022/09/25 06:48:07;;;;;;;47.60;27.88;;;;;;;9.65;93.89;98988.25;8399306;28;20048;-79
2022/09/25 06:52:08;;;;;;;45.40;28.52;;;;;;;9.79;93.70;98990.06;8395235;28;20095;-79
2022/09/25 06:56:09;;;;;;;46.25;29.58;;;;;;;9.89;93.77;98981.75;8398353;28;20115;-78
2022/09/25 07:00:11;;;;;;;42.90;24.67;;;;;;;9.97;93.95;98994.50;8402235;28;20043;-78
2022/09/25 07:04:12;;;;;;;37.60;22.45;;;;;;;9.98;93.74;98991.50;8390123;28;20120;-78
2022/09/25 07:08:15;;;;;;;44.90;24.90;;;;;;;9.98;94.18;98990.72;8419458;28;20123;-78
2022/09/25 07:12:20;;;;;;;50.38;26.65;;;;;;;10.03;94.30;98993.28;8400067;28;20056;-79
2022/09/25 07:16:24;;;;;;;42.03;24.25;;;;;;;10.15;94.14;98990.81;8396857;28;20139;-79
2022/09/25 07:20:24;;;;;;;34.80;21.42;;;;;;;10.30;94.02;98993.16;8397146;28;20044;-78
2022/09/25 07:24:25;;;;;;;42.30;21.48;;;;;;;10.45;93.67;98981.97;8400477;28;20036;-78
2022/09/25 07:28:26;;;;;;;33.65;20.08;;;;;;;10.64;93.44;98992.53;8396603;28;20261;-79
2022/09/25 07:32:28;;;;;;;28.80;18.50;;;;;;;10.85;93.02;98992.75;8392958;28;20105;-79
2022/09/25 07:36:28;;;;;;;32.42;18.33;;;;;;;11.02;92.22;98990.13;8393695;28;20044;-80
2022/09/25 07:40:34;;;;;;;27.42;17.10;;;;;;;11.17;91.54;98994.28;8396987;28;20067;-81
2022/09/25 07:44:34;;;;;;;30.13;18.00;;;;;;;11.30;91.04;99004.97;8396424;28;20051;-79
2022/09/25 07:48:35;;;;;;;26.20;16.52;;;;;;;11.42;90.64;99007.03;8396587;28;20054;-78
2022/09/25 07:52:36;;;;;;;27.77;14.98;;;;;;;11.56;90.32;99002.28;8396031;28;20044;-78
2022/09/25 07:56:37;;;;;;;23.33;14.43;;;;;;;11.70;89.98;99002.13;8397219;28;20117;-79
2022/09/25 08:00:39;;;;;;;24.13;13.95;;;;;;;11.85;89.54;98998.97;8394728;28;20064;-79
2022/09/25 08:04:40;;;;;;;26.15;14.13;;;;;;;12.07;89.31;99006.91;8395600;28;20447;-79
2022/09/25 08:08:42;;;;;;;21.77;11.05;;;;;;;12.18;88.90;98991.94;8359022;28;20086;-79
2022/09/25 08:12:43;;;;;;;19.25;13.00;;;;;;;12.29;88.13;98997.81;8394299;28;20407;-79
2022/09/25 08:16:44;;;;;;;23.02;14.52;;;;;;;12.40;87.85;98992.84;8392737;28;20048;-78
2022/09/25 08:20:45;;;;;;;20.00;11.90;;;;;;;12.36;87.76;98991.91;8394931;28;20139;-79
2022/09/25 08:24:47;;;;;;;23.42;13.95;;;;;;;12.32;87.87;98985.53;8395772;28;20044;-78
2022/09/25 08:28:49;;;;;;;19.00;12.10;;;;;;;12.39;87.89;98985.81;8393782;28;20143;-79
2022/09/25 08:32:51;;;;;;;19.58;12.43;;;;;;;12.55;87.47;98984.19;8404143;28;20049;-78
2022/09/25 08:36:53;;;;;;;21.48;12.57;;;;;;;12.78;86.69;98971.97;8377309;28;20513;-79
2022/09/25 08:41:02;;;;;;;15.73;10.10;;;;;;;12.99;85.73;98967.41;8396841;28;20123;-79
2022/09/25 08:49:32;;;;;;;15.23;10.10;;;;;;;13.31;83.91;98978.72;8358974;28;20045;-79
2022/09/25 08:53:34;;;;;;;17.55;11.18;;;;;;;13.46;84.22;98970.00;8396201;28;20127;-78
2022/09/25 08:57:39;;;;;;;13.70;8.90;;;;;;;13.63;83.23;98975.31;8393558;28;20041;-78
2022/09/25 09:01:52;;;;;;;15.85;9.07;;;;;;;13.79;82.34;98968.16;8397942;28;20052;-81
2022/09/25 09:06:00;;;;;;;12.88;8.75;;;;;;;13.92;81.27;98967.06;8393267;28;20431;-80
2022/09/25 09:10:04;;;;;;;;;;;;;;;14.04;81.19;98957.38;8412299;28;20072;-79
2022/09/25 09:14:10;;;;;;;16.48;7.28;;;;;;;14.18;80.59;98952.41;8429702;28;19920;-80
2022/09/25 09:18:26;;;;;;;10.20;7.45;;;;;;;14.26;79.68;98943.41;8419876;28;20058;-80
2022/09/25 09:22:36;;;;;;;12.43;8.00;;;;;;;14.38;78.48;98940.75;8429345;28;20052;-78
2022/09/25 09:27:13;;;;;;;15.07;8.82;;;;;;;14.54;78.36;98938.91;8428425;28;20059;-81
2022/09/25 09:31:26;;;;;;;11.13;7.10;;;;;;;14.71;77.27;98944.16;8393264;28;20052;-79
2022/09/25 09:35:37;;;;;;;14.32;8.45;;;;;;;14.78;77.16;98949.81;8429423;28;20090;-79
2022/09/25 09:39:43;;;;;;;12.93;8.10;;;;;;;14.94;76.62;98941.78;8428686;28;20047;-78
2022/09/25 09:44:06;;;;;;;22.10;7.70;;;;;;;15.12;76.01;98936.88;8427989;28;20043;-79
2022/09/25 09:48:27;;;;;;;10.52;6.97;;;;;;;15.29;75.04;98931.16;8414721;28;20040;-79
2022/09/25 09:52:34;;;;;;;10.90;7.20;;;;;;;15.37;74.66;98927.53;8415636;28;20048;-79
2022/09/25 09:56:37;;;;;;;15.90;6.60;;;;;;;15.51;73.78;98911.63;8425756;28;20044;-79
2022/09/25 10:00:40;;;;;;;9.50;5.75;;;;;;;15.66;72.78;98912.03;8406186;28;20414;-79
2022/09/25 10:04:42;;;;;;;13.48;5.78;;;;;;;15.76;72.15;98916.97;8410701;28;20049;-79
2022/09/25 10:08:43;;;;;;;15.65;6.38;;;;;;;15.90;70.63;98911.94;8423822;28;20047;-80
2022/09/25 10:12:54;;;;;;;10.18;5.70;;;;;;;16.02;69.75;98898.25;8434323;28;20072;-79
2022/09/25 10:16:55;;;;;;;8.75;5.80;;;;;;;16.08;69.14;98902.28;8399621;28;20139;-79
2022/09/25 10:21:04;;;;;;;14.15;6.63;;;;;;;16.19;69.49;98908.81;8429965;28;20036;-80
2022/09/25 10:25:06;;;;;;;11.77;5.55;;;;;;;16.28;69.36;98906.72;8426338;28;20052;-79
2022/09/25 10:29:07;;;;;;;14.60;5.88;;;;;;;16.33;69.35;98897.50;8386922;28;20048;-80
2022/09/25 10:33:16;;;;;;;10.18;5.68;;;;;;;16.48;68.08;98905.66;8425457;28;20512;-79
2022/09/25 10:37:20;;;;;;;8.43;6.22;;;;;;;16.52;68.25;98910.41;8433447;28;20044;-79
2022/09/25 10:41:22;;;;;;;12.07;6.07;;;;;;;16.61;67.86;98902.84;8434356;28;20036;-79
2022/09/25 10:45:32;;;;;;;10.85;6.30;;;;;;;16.69;67.50;98901.91;8425137;28;20048;-78
2022/09/25 10:54:11;;;;;;;12.25;6.45;;;;;;;16.81;67.78;98890.88;8423530;28;20534;-79
2022/09/25 10:58:15;;;;;;;11.55;6.13;;;;;;;16.89;67.34;98887.16;8417130;28;20059;-79
2022/09/25 11:02:33;;;;;;;9.35;5.53;;;;;;;16.93;66.21;98882.56;8432639;28;20094;-80
2022/09/25 11:06:34;;;;;;;8.25;4.90;;;;;;;16.99;64.77;98875.69;8383902;28;20100;-79
2022/09/25 11:10:44;;;;;;;7.70;4.93;;;;;;;17.09;65.00;98880.59;8433780;28;20075;-79
2022/09/25 11:14:57;;;;;;;8.70;5.30;;;;;;;17.13;64.98;98881.47;8413812;28;20049;-80
2022/09/25 11:19:11;;;;;;;9.82;5.32;;;;;;;17.09;65.37;98875.13;8401309;28;20056;-79
2022/09/25 11:23:28;;;;;;;21.75;6.22;;;;;;;17.06;65.62;98873.13;8428888;28;20050;-79
2022/09/25 11:27:38;;;;;;;11.40;5.78;;;;;;;17.22;65.29;98862.97;8433069;28;20076;-80
2022/09/25 11:31:57;;;;;;;12.32;5.47;;;;;;;17.37;64.06;98860.50;8408043;28;20055;-78
2022/09/25 11:36:04;;;;;;;13.10;4.93;;;;;;;17.52;63.76;98859.63;8396826;28;20044;-80
2022/09/25 11:44:56;;;;;;;10.52;4.88;;;;;;;17.74;63.57;98867.13;8394905;28;20081;-82
2022/09/25 11:49:10;;;;;;;13.48;4.50;;;;;;;17.78;63.08;98865.25;8379067;28;20048;-79
2022/09/25 11:53:18;;;;;;;8.73;4.25;;;;;;;17.78;62.93;98862.53;8394709;28;20048;-78
2022/09/25 11:57:30;;;;;;;11.40;4.50;;;;;;;17.83;62.66;98859.50;8396334;28;20036;-80
2022/09/25 12:01:41;;;;;;;10.10;4.13;;;;;;;17.93;62.52;98858.88;8397101;28;20049;-79
2022/09/25 12:05:54;;;;;;;8.27;4.47;;;;;;;17.96;62.02;98852.72;8394946;28;20052;-79
2022/09/25 12:10:12;;;;;;;9.25;4.88;;;;;;;18.07;62.12;98845.50;8395939;28;20101;-80
2022/09/25 12:14:16;;;;;;;12.82;4.63;;;;;;;18.03;61.59;98841.13;8395116;28;20478;-78
2022/09/25 12:18:32;;;;;;;7.75;4.25;;;;;;;18.02;61.62;98840.34;8396692;28;20052;-80
2022/09/25 12:22:56;;;;;;;5.93;4.20;;;;;;;18.06;60.91;98829.47;8395668;28;20050;-79
2022/09/25 12:27:11;;;;;;;5.72;3.90;;;;;;;18.06;60.39;98830.25;8395429;28;20074;-80
2022/09/25 12:31:38;;;;;;;6.10;4.22;;;;;;;18.08;60.19;98827.16;8394898;28;20052;-79
2022/09/25 12:36:02;;;;;;;7.95;4.00;;;;;;;18.19;60.04;98836.31;8394466;28;20077;-80
2022/09/25 12:40:13;;;;;;;7.70;3.80;;;;;;;18.17;58.34;98824.16;8394366;28;20452;-79
2022/09/25 12:44:36;;;;;;;8.73;3.60;;;;;;;18.28;58.65;98825.13;8387537;28;20060;-81
2022/09/25 12:48:50;;;;;;;12.02;5.55;;;;;;;18.32;58.48;98820.50;8393652;28;20481;-79
2022/09/25 12:53:13;;;;;;;8.27;3.92;;;;;;;18.27;58.68;98829.03;8395791;28;20032;-79
2022/09/25 12:57:21;;;;;;;6.07;3.67;;;;;;;18.18;58.65;98814.81;8394214;28;20414;-80
2022/09/25 13:01:25;;;;;;;5.90;3.40;;;;;;;17.95;59.41;98812.88;8394288;28;20049;-80
2022/09/25 13:05:33;;;;;;;5.18;3.55;;;;;;;17.64;61.60;98813.09;8395466;28;20049;-79
2022/09/25 13:09:41;;;;;;;7.00;4.00;;;;;;;17.96;61.23;98814.47;8370698;28;20052;-79
2022/09/25 13:13:46;;;;;;;7.20;4.10;;;;;;;19.50;56.23;98813.56;8343190;28;20041;-79
2022/09/25 13:17:47;;;;;;;5.95;4.15;;;;;;;20.81;52.56;98805.69;8366791;28;20045;-79
2022/09/25 13:21:48;;;;;;;4.55;3.17;;;;;;;22.20;52.18;98800.25;8332557;28;20083;-79
2022/09/25 13:25:57;;;;;;;6.72;4.60;;;;;;;23.46;49.98;98802.31;8360246;28;20051;-79
2022/09/25 13:30:00;;;;;;;6.35;3.08;;;;;;;23.93;48.39;98804.38;8345069;28;20127;-79
2022/09/25 13:34:01;;;;;;;4.80;3.50;;;;;;;23.79;48.75;98793.47;8345978;28;20051;-79
2022/09/25 13:42:37;;;;;;;4.20;3.33;;;;;;;22.46;48.46;98790.00;8390512;28;20486;-79
2022/09/25 13:46:39;;;;;;;7.00;3.85;;;;;;;21.25;50.29;98795.34;8394385;28;20052;-79
2022/09/25 13:50:43;;;;;;;15.32;5.80;;;;;;;20.63;52.51;98792.63;8358627;28;20044;-80
2022/09/25 13:54:44;;;;;;;25.98;16.08;;;;;;;20.02;54.67;98778.84;8393069;28;20040;-79
2022/09/25 13:58:58;;;;;;;9.48;6.30;;;;;;;19.44;56.42;98782.19;8392987;28;20052;-79
2022/09/25 14:03:02;;;;;;;6.22;3.45;;;;;;;18.98;58.33;98776.94;8394415;28;20075;-79
2022/09/25 14:07:17;;;;;;;37.17;15.90;;;;;;;18.80;58.34;98775.94;8393190;28;20114;-79
2022/09/25 14:11:23;;;;;;;23.10;10.57;;;;;;;18.63;59.33;98771.00;8392711;28;20044;-79
2022/09/25 14:15:37;;;;;;;12.02;5.88;;;;;;;18.43;60.15;98766.78;8392701;28;20052;-79
2022/09/25 14:19:40;;;;;;;14.10;6.05;;;;;;;18.21;61.40;98764.88;8350460;28;20045;-79
2022/09/25 14:23:52;;;;;;;8.82;5.22;;;;;;;18.09;61.70;98761.19;8310419;28;20045;-80
2022/09/25 14:27:54;;;;;;;6.72;4.40;;;;;;;17.88;62.08;98752.66;8323630;28;20054;-79
2022/09/25 14:32:20;;;;;;;8.52;4.97;;;;;;;17.60;62.72;98747.53;8336013;28;20080;-79
2022/09/25 14:36:41;;;;;;;10.25;6.22;;;;;;;17.37;63.79;98748.59;8338994;28;20041;-79
2022/09/25 14:40:50;;;;;;;14.60;5.32;;;;;;;17.10;64.88;98745.75;8333588;28;20716;-79
2022/09/25 14:45:33;;;;;;;11.15;5.78;;;;;;;16.90;65.29;98746.94;8352446;28;20086;-80
2022/09/25 14:49:37;;;;;;;25.92;7.28;;;;;;;16.79;66.42;98740.47;8285739;28;20452;-79
2022/09/25 14:53:45;;;;;;;7.28;4.80;;;;;;;16.69;68.01;98735.56;8257364;28;20058;-79
2022/09/25 14:57:47;;;;;;;12.25;4.85;;;;;;;16.73;68.96;98730.97;8240803;28;20088;-79
2022/09/25 15:01:50;;;;;;;9.13;5.25;;;;;;;16.78;69.45;98738.88;8264753;28;20058;-79
2022/09/25 15:05:51;;;;;;;16.42;5.47;;;;;;;16.79;70.18;98733.06;8276801;28;20053;-79
2022/09/25 15:09:54;;;;;;;60.78;25.48;;;;;;;16.75;71.55;98739.59;8263509;28;20213;-79
2022/09/25 15:14:09;;;;;;;54.63;21.58;;;;;;;16.70;71.96;98721.59;8263502;28;20042;-79
2022/09/25 15:18:12;;;;;;;42.80;20.77;;;;;;;16.63;72.80;98723.38;8263425;28;20476;-79
2022/09/25 15:22:20;;;;;;;77.13;30.35;;;;;;;16.54;73.52;98722.75;8241882;28;20077;-79
2022/09/25 15:26:22;;;;;;;64.47;25.98;;;;;;;16.44;74.29;98713.97;8342858;28;20072;-80
2022/09/25 15:30:25;;;;;;;67.78;27.13;;;;;;;16.35;75.10;98721.56;8396559;28;20060;-79
2022/09/25 15:34:30;;;;;;;67.15;26.48;;;;;;;16.26;76.09;98707.38;8396481;28;20036;-83
2022/09/25 15:38:34;;;;;;;63.42;26.40;;;;;;;16.19;76.62;98712.66;8398008;28;20037;-81
2022/09/25 15:42:35;;;;;;;52.88;24.30;;;;;;;16.14;77.41;98710.19;8343756;28;20048;-81
2022/09/25 15:46:39;;;;;;;74.07;26.30;;;;;;;16.11;78.03;98705.47;8397603;28;20521;-81
2022/09/25 15:50:42;;;;;;;41.33;21.80;;;;;;;16.06;78.07;98708.47;8398020;28;20044;-81
2022/09/25 15:54:44;;;;;;;56.30;24.85;;;;;;;16.02;78.72;98707.59;8398600;28;20512;-81
2022/09/25 15:58:52;;;;;;;87.53;34.83;;;;;;;15.95;79.33;98707.44;8393159;28;20135;-81
2022/09/25 16:07:34;;;;;;;;;;;;;;;15.73;79.84;98710.78;8394214;28;20467;-82
2022/09/25 16:11:35;;;;;;;25.75;11.05;;;;;;;15.61;80.23;98703.47;8392551;28;19921;-81
2022/09/25 16:15:44;;;;;;;23.00;12.18;;;;;;;15.51;80.55;98698.53;8394146;28;20063;-81
2022/09/25 16:19:57;;;;;;;30.75;14.35;;;;;;;15.43;81.20;98697.59;8423094;28;20135;-79
2022/09/25 16:24:06;;;;;;;22.10;11.95;;;;;;;15.31;81.61;98694.13;8424249;28;20052;-80
2022/09/25 16:28:18;;;;;;;26.15;10.55;;;;;;;15.18;82.33;98693.41;8424205;28;20438;-79
2022/09/25 16:32:20;;;;;;;21.33;8.82;;;;;;;15.08;82.67;98691.19;8407188;28;20043;-80
2022/09/25 16:36:24;;;;;;;15.52;6.85;;;;;;;14.92;83.28;98682.22;8424560;28;20100;-79
2022/09/25 16:40:27;;;;;;;10.15;6.43;;;;;;;14.78;83.48;98688.84;8373644;28;20074;-80
2022/09/25 16:44:31;;;;;;;15.65;7.15;;;;;;;14.61;83.88;98694.56;8424380;28;20048;-79
2022/09/25 16:48:37;;;;;;;12.02;8.48;;;;;;;14.47;83.92;98694.19;8420524;28;20049;-80
2022/09/25 16:52:42;;;;;;;27.25;8.10;;;;;;;14.32;84.45;98692.16;8359492;28;20487;-80
2022/09/25 16:56:46;;;;;;;27.70;8.93;;;;;;;14.21;84.60;98696.47;8394233;28;20052;-80
2022/09/25 17:00:47;;;;;;;19.98;9.35;;;;;;;14.12;84.64;98698.50;8393834;28;20067;-79
2022/09/25 17:04:49;;;;;;;20.42;10.38;;;;;;;14.00;84.71;98695.81;8394217;28;20086;-79
2022/09/25 17:08:50;;;;;;;23.63;12.30;;;;;;;13.85;85.07;98706.22;8389334;28;20048;-79
2022/09/25 17:12:53;;;;;;;23.63;13.82;;;;;;;13.68;85.17;98706.44;8358271;28;20186;-79
2022/09/25 17:16:55;;;;;;;24.83;14.95;;;;;;;13.49;85.87;98701.56;8342058;28;20520;-79
2022/09/25 17:20:58;;;;;;;21.88;12.27;;;;;;;13.32;85.52;98698.28;8391554;28;20050;-79
2022/09/25 17:25:01;;;;;;;24.08;11.82;;;;;;;13.19;85.24;98699.34;8392989;28;20048;-79
2022/09/25 17:29:03;;;;;;;26.73;14.13;;;;;;;13.03;85.22;98696.47;8393671;28;20048;-79
2022/09/25 17:33:05;;;;;;;59.63;27.08;;;;;;;12.90;85.10;98692.91;8374397;28;20048;-79
2022/09/25 17:37:06;;;;;;;57.58;33.40;;;;;;;12.79;85.02;98691.75;8393279;28;20044;-79
2022/09/25 17:41:28;;;;;;;38.10;24.35;;;;;;;12.63;85.09;98688.09;8393155;28;20052;-79
2022/09/25 17:45:56;;;;;;;27.00;15.43;;;;;;;12.45;85.09;98686.63;8392493;28;20537;-79
2022/09/25 17:49:58;;;;;;;15.27;9.20;;;;;;;12.34;84.95;98674.59;8290455;28;20066;-79
2022/09/25 17:54:01;;;;;;;27.13;16.25;;;;;;;12.24;84.88;98682.00;8290807;28;20081;-79
2022/09/25 17:58:03;;;;;;;31.88;18.42;;;;;;;12.12;84.71;98679.22;8290325;28;20708;-78
2022/09/25 18:02:14;;;;;;;26.35;15.15;;;;;;;12.00;84.85;98687.25;8259206;28;20502;-79
2022/09/25 18:06:15;;;;;;;23.83;10.38;;;;;;;11.93;84.69;98686.97;8273607;28;20045;-79
2022/09/25 18:10:16;;;;;;;26.13;10.43;;;;;;;11.88;84.55;98689.88;8289712;28;20054;-79
2022/09/25 18:14:17;;;;;;;30.95;15.80;;;;;;;11.83;84.56;98695.47;8289197;28;20068;-79
2022/09/25 18:18:19;;;;;;;56.97;21.63;;;;;;;11.80;84.66;98693.41;8290215;28;20054;-79
2022/09/25 18:22:24;;;;;;;51.13;23.23;;;;;;;11.78;84.75;98684.84;8289943;28;20096;-79
2022/09/25 18:26:28;;;;;;;63.95;30.63;;;;;;;11.69;84.71;98684.03;8324918;28;20471;-79
2022/09/25 18:30:31;;;;;;;63.70;32.80;;;;;;;11.69;84.90;98684.03;8390215;28;20397;-79
2022/09/25 18:34:34;;;;;;;74.60;29.83;;;;;;;11.70;84.71;98685.63;8399881;28;20131;-79
2022/09/25 18:38:38;;;;;;;36.95;16.73;;;;;;;11.61;84.68;98669.47;8399447;28;20040;-79
2022/09/25 18:42:42;;;;;;;35.33;17.88;;;;;;;11.59;84.67;98681.72;8315998;28;20063;-79
2022/09/25 18:46:45;;;;;;;34.33;15.30;;;;;;;11.55;85.02;98686.19;8398406;28;20490;-79
2022/09/25 18:50:49;;;;;;;27.92;12.68;;;;;;;11.56;84.94;98693.19;8395333;28;20573;-79
2022/09/25 18:54:51;;;;;;;24.85;11.73;;;;;;;11.52;84.96;98686.84;8397629;28;20041;-80
2022/09/25 18:58:53;;;;;;;39.25;13.82;;;;;;;11.51;85.18;98685.25;8397787;28;20045;-79
2022/09/25 19:02:54;;;;;;;22.40;11.80;;;;;;;11.48;85.11;98685.88;8396960;28;20052;-80
2022/09/25 19:06:55;;;;;;;29.60;12.15;;;;;;;11.41;85.37;98692.63;8398059;28;20699;-79
2022/09/25 19:10:59;;;;;;;36.95;17.30;;;;;;;11.33;85.47;98690.72;8361653;28;20076;-79
2022/09/25 19:15:03;;;;;;;50.42;26.65;;;;;;;11.26;85.55;98684.25;8397204;28;20044;-79
2022/09/25 19:19:04;;;;;;;65.22;30.88;;;;;;;11.21;85.66;98671.66;8398403;28;20127;-79
2022/09/25 19:23:06;;;;;;;75.10;36.85;;;;;;;11.17;85.75;98670.75;8368243;28;20079;-79